Time;durP1;ratioP1;P1;durP2;ratioP2;P2;SDS_P1;SDS_P2;PMS_P1;PMS_P2;Temp;Humidity;BMP_temperature;BMP_pressure;BME280_temperature;BME280_humidity;BME280_pressure;Samples;Min_cycle;Max_cycle;Signal;HPM_P1;HPM_P2
2022/03/30 00:01:04;;;;;;;24.15;14.00;;;;;;;4.81;100.00;100930.03;6158756;23;20344;-78
2022/03/30 00:03:33;;;;;;;30.55;14.23;;;;;;;4.81;100.00;100922.19;6157153;23;20243;-78
2022/03/30 00:06:04;;;;;;;28.70;13.60;;;;;;;4.83;100.00;100928.34;6133275;23;20021;-78
2022/03/30 00:08:33;;;;;;;33.40;14.55;;;;;;;4.82;100.00;100923.97;6134296;23;20228;-78
2022/03/30 00:11:01;;;;;;;28.33;14.85;;;;;;;4.83;100.00;100919.63;6064977;23;20021;-78
2022/03/30 00:13:30;;;;;;;41.65;14.95;;;;;;;4.83;100.00;100917.03;6129527;23;20668;-78
2022/03/30 00:15:58;;;;;;;28.40;14.30;;;;;;;4.84;100.00;100919.69;6134481;23;20473;-78
2022/03/30 00:18:27;;;;;;;39.50;15.68;;;;;;;4.84;100.00;100914.47;6095499;23;20028;-78
2022/03/30 00:20:55;;;;;;;33.72;15.13;;;;;;;4.83;100.00;100909.19;6149413;23;20018;-78
2022/03/30 00:23:24;;;;;;;29.98;15.73;;;;;;;4.83;100.00;100904.84;6156817;23;20120;-78
2022/03/30 00:25:52;;;;;;;34.95;16.30;;;;;;;4.83;100.00;100915.28;6158693;23;20021;-78
2022/03/30 00:28:21;;;;;;;29.25;15.65;;;;;;;4.83;100.00;100906.56;6118023;23;20223;-78
2022/03/30 00:30:52;;;;;;;36.88;17.65;;;;;;;4.81;100.00;100906.53;6158989;23;20024;-78
2022/03/30 00:33:21;;;;;;;27.77;15.13;;;;;;;4.82;100.00;100910.00;6116386;23;20060;-78
2022/03/30 00:35:49;;;;;;;32.65;15.85;;;;;;;4.82;100.00;100900.47;6182290;23;20025;-78
2022/03/30 00:38:18;;;;;;;29.73;16.35;;;;;;;4.82;100.00;100902.19;6155316;23;20021;-78
2022/03/30 00:40:46;;;;;;;32.08;15.80;;;;;;;4.82;100.00;100902.19;6184219;23;20018;-78
2022/03/30 00:43:16;;;;;;;40.75;16.30;;;;;;;4.83;100.00;100903.97;6108779;23;20657;-78
2022/03/30 00:45:44;;;;;;;39.22;18.63;;;;;;;4.82;100.00;100897.88;6161331;23;20022;-78
2022/03/30 00:48:13;;;;;;;27.15;14.93;;;;;;;4.83;100.00;100901.34;6152220;23;20021;-78
2022/03/30 00:50:41;;;;;;;33.38;16.30;;;;;;;4.83;100.00;100889.19;6159875;23;20025;-78
2022/03/30 00:53:10;;;;;;;40.05;16.80;;;;;;;4.82;100.00;100902.19;6155817;23;20036;-78
2022/03/30 00:55:39;;;;;;;29.13;14.38;;;;;;;4.82;100.00;100897.88;6160654;23;20018;-78
2022/03/30 00:58:08;;;;;;;24.38;14.63;;;;;;;4.81;100.00;100893.47;6141826;23;20029;-78
2022/03/30 01:00:38;;;;;;;29.10;14.50;;;;;;;4.80;100.00;100883.91;6159519;23;20070;-76
2022/03/30 01:03:07;;;;;;;24.58;13.32;;;;;;;4.81;100.00;100892.59;6152189;23;20025;-82
2022/03/30 01:05:36;;;;;;;28.70;14.60;;;;;;;4.83;100.00;100886.56;6190072;23;20036;-81
2022/03/30 01:08:04;;;;;;;32.45;14.82;;;;;;;4.85;100.00;100881.38;6137013;23;20024;-81
2022/03/30 01:10:34;;;;;;;19.53;10.73;;;;;;;4.88;100.00;100878.88;6116401;23;20400;-82
2022/03/30 01:13:03;;;;;;;35.80;14.63;;;;;;;4.89;100.00;100878.88;6114321;23;20009;-82
2022/03/30 01:15:34;;;;;;;37.63;15.15;;;;;;;4.91;100.00;100876.31;6152763;23;20032;-82
2022/03/30 01:18:02;;;;;;;33.72;15.27;;;;;;;4.93;100.00;100871.16;6162674;23;20358;-82
2022/03/30 01:20:31;;;;;;;30.02;14.05;;;;;;;4.95;100.00;100877.28;6112508;23;20017;-81
2022/03/30 01:23:02;;;;;;;30.37;15.40;;;;;;;4.96;100.00;100869.50;6159986;23;20013;-82
2022/03/30 01:25:31;;;;;;;;;;;;;;;4.98;100.00;100864.31;6190714;23;20231;-81
2022/03/30 01:28:00;;;;;;;33.72;13.73;;;;;;;4.98;100.00;100866.94;6154643;23;19923;-81
2022/03/30 01:33:15;;;;;;;31.50;14.43;;;;;;;4.98;100.00;100857.38;6139986;23;20338;-82
2022/03/30 01:35:44;;;;;;;28.85;14.13;;;;;;;4.98;100.00;100857.38;6113151;23;20017;-81
2022/03/30 01:38:12;;;;;;;26.60;13.73;;;;;;;4.98;100.00;100852.16;6137322;23;20021;-82
2022/03/30 01:40:41;;;;;;;26.27;13.10;;;;;;;4.97;100.00;100842.56;6108003;23;20017;-82
2022/03/30 01:43:09;;;;;;;33.47;14.00;;;;;;;4.98;100.00;100843.44;6162078;23;20028;-81
2022/03/30 01:45:38;;;;;;;32.65;13.02;;;;;;;4.98;100.00;100849.53;6115941;23;20025;-83
2022/03/30 01:48:07;;;;;;;27.20;14.63;;;;;;;4.98;100.00;100844.31;6152553;23;20358;-83
2022/03/30 01:50:36;;;;;;;29.70;14.27;;;;;;;4.96;100.00;100843.38;6137115;23;20021;-82
2022/03/30 01:53:05;;;;;;;30.88;14.43;;;;;;;4.93;100.00;100843.28;6137005;23;20024;-82
2022/03/30 01:55:34;;;;;;;35.47;16.63;;;;;;;4.92;100.00;100840.69;6105233;23;20493;-82
2022/03/30 01:58:02;;;;;;;35.35;14.55;;;;;;;4.91;100.00;100842.38;6113819;23;20446;-83
2022/03/30 02:00:31;;;;;;;34.03;16.02;;;;;;;4.88;100.00;100839.72;6161501;23;20374;-82
2022/03/30 02:02:59;;;;;;;34.28;15.38;;;;;;;4.88;100.00;100834.47;6119112;23;20020;-82
2022/03/30 02:05:31;;;;;;;37.10;15.95;;;;;;;4.84;100.00;100838.75;6159109;23;20021;-82
2022/03/30 02:07:59;;;;;;;31.58;14.40;;;;;;;4.84;100.00;100827.41;6137840;23;20024;-83
2022/03/30 02:10:28;;;;;;;31.83;16.27;;;;;;;4.82;100.00;100824.75;6161632;23;20025;-82
2022/03/30 02:13:00;;;;;;;36.53;15.10;;;;;;;4.82;100.00;100818.63;6138817;23;20029;-82
2022/03/30 02:15:29;;;;;;;30.67;15.60;;;;;;;4.83;100.00;100828.25;6160616;23;20318;-82
2022/03/30 02:17:58;;;;;;;32.75;15.50;;;;;;;4.83;100.00;100817.81;6127817;23;20021;-83
2022/03/30 02:20:28;;;;;;;38.33;17.45;;;;;;;4.83;100.00;100818.69;6126857;23;20032;-82
2022/03/30 02:22:57;;;;;;;28.98;15.50;;;;;;;4.81;100.00;100816.88;6160396;23;20342;-83
2022/03/30 02:25:26;;;;;;;31.55;13.18;;;;;;;4.82;100.00;100819.53;6131393;23;20258;-82
2022/03/30 02:27:55;;;;;;;24.40;11.30;;;;;;;4.85;100.00;100811.75;6131039;23;20032;-82
2022/03/30 02:30:23;;;;;;;6.75;4.32;;;;;;;4.88;100.00;100809.25;6135428;23;20024;-82
2022/03/30 02:32:52;;;;;;;3.20;2.83;;;;;;;4.90;100.00;100811.91;6186401;23;20021;-83
2022/03/30 02:35:20;;;;;;;1.00;1.00;;;;;;;4.91;100.00;100812.78;6124869;23;20048;-82
2022/03/30 02:37:49;;;;;;;1.40;1.30;;;;;;;4.92;100.00;100814.56;6136955;23;20027;-83
2022/03/30 02:40:17;;;;;;;1.80;1.40;;;;;;;4.93;100.00;100811.09;6185886;23;20633;-82
2022/03/30 02:42:46;;;;;;;1.38;1.27;;;;;;;4.92;100.00;100811.94;6138650;23;20013;-82
2022/03/30 02:45:15;;;;;;;1.40;1.30;;;;;;;4.91;100.00;100818.00;6184341;23;20021;-81
2022/03/30 02:50:31;;;;;;;1.73;1.35;;;;;;;4.87;100.00;100812.69;6183413;23;20036;-83
2022/03/30 02:52:59;;;;;;;3.00;1.20;;;;;;;4.86;100.00;100810.94;6125673;23;20017;-82
2022/03/30 02:55:28;;;;;;;1.92;1.20;;;;;;;4.85;100.00;100808.28;6102573;23;20040;-82
2022/03/30 02:57:56;;;;;;;1.88;0.80;;;;;;;4.86;100.00;100808.31;6162523;23;20025;-83
2022/03/30 03:00:26;;;;;;;1.42;1.13;;;;;;;4.85;100.00;100803.94;6125085;23;20017;-82
2022/03/30 03:02:54;;;;;;;3.65;1.35;;;;;;;4.83;100.00;100803.00;6137527;23;20024;-82
2022/03/30 03:05:23;;;;;;;4.05;1.00;;;;;;;4.84;100.00;100803.91;6088194;23;20228;-82
2022/03/30 03:07:51;;;;;;;1.00;1.00;;;;;;;4.86;100.00;100799.63;6111284;23;20350;-82
2022/03/30 03:10:20;;;;;;;1.20;0.90;;;;;;;4.86;100.00;100797.88;6101649;23;20227;-82
2022/03/30 03:12:48;;;;;;;1.30;1.00;;;;;;;4.87;100.00;100796.16;6128166;23;20021;-82
2022/03/30 03:15:17;;;;;;;1.60;1.35;;;;;;;4.88;100.00;100801.41;6076796;23;20204;-83
2022/03/30 03:17:45;;;;;;;1.55;0.70;;;;;;;4.83;100.00;100792.56;6098012;23;20026;-81
2022/03/30 03:20:14;;;;;;;0.80;0.80;;;;;;;4.82;100.00;100800.34;6004468;23;20022;-80
2022/03/30 03:22:43;;;;;;;0.98;0.80;;;;;;;4.79;100.00;100801.19;6047410;23;20029;-83
2022/03/30 03:25:11;;;;;;;2.97;1.00;;;;;;;4.74;100.00;100804.50;6047769;23;20464;-83
2022/03/30 03:27:40;;;;;;;0.88;0.77;;;;;;;4.72;100.00;100807.06;6018486;23;20026;-82
2022/03/30 03:30:10;;;;;;;1.02;0.80;;;;;;;4.73;100.00;100810.59;6063651;23;20030;-83
2022/03/30 03:32:38;;;;;;;0.82;0.82;;;;;;;4.72;100.00;100800.97;6017646;23;20029;-82
2022/03/30 03:35:09;;;;;;;1.45;0.90;;;;;;;4.74;100.00;100799.28;6006354;23;20025;-81
2022/03/30 03:37:40;;;;;;;2.60;1.10;;;;;;;4.75;100.00;100801.06;6094650;23;20026;-81
2022/03/30 03:40:10;;;;;;;1.27;1.17;;;;;;;4.75;100.00;100801.06;6046394;23;20038;-82
2022/03/30 03:42:39;;;;;;;1.63;1.20;;;;;;;4.75;100.00;100803.69;6042265;23;20018;-81
2022/03/30 03:45:07;;;;;;;1.15;1.13;;;;;;;4.77;100.00;100796.78;6063516;23;20319;-82
2022/03/30 03:47:36;;;;;;;1.88;1.20;;;;;;;4.77;100.00;100797.66;6042097;23;20030;-82
2022/03/30 03:50:05;;;;;;;1.50;1.00;;;;;;;4.75;100.00;100796.72;6126210;23;20358;-81
2022/03/30 03:52:33;;;;;;;2.33;1.25;;;;;;;4.73;100.00;100785.34;6098228;23;20144;-82
2022/03/30 03:55:03;;;;;;;1.00;1.00;;;;;;;4.73;100.00;100794.94;6138589;23;20362;-82
2022/03/30 03:57:33;;;;;;;0.90;0.90;;;;;;;4.73;100.00;100787.09;6163673;23;20056;-82
2022/03/30 04:00:04;;;;;;;1.98;1.88;;;;;;;4.73;100.00;100797.53;6107404;23;20017;-83
2022/03/30 04:02:40;;;;;;;1.20;1.20;;;;;;;4.72;100.00;100787.91;6156730;23;20446;-82
2022/03/30 04:05:09;;;;;;;1.13;1.13;;;;;;;4.68;100.00;100795.66;6161580;23;20025;-83
2022/03/30 04:07:38;;;;;;;1.90;1.10;;;;;;;4.65;100.00;100793.00;6091892;23;20347;-82
2022/03/30 04:10:09;;;;;;;2.15;1.00;;;;;;;4.61;100.00;100785.94;6162295;23;20016;-83
2022/03/30 04:12:38;;;;;;;;;;;;;;;4.60;100.00;100797.19;6140707;23;20351;-81
2022/03/30 04:15:08;;;;;;;0.65;0.65;;;;;;;4.57;100.00;100791.88;6152382;23;20175;-83
2022/03/30 04:17:47;;;;;;;0.80;0.80;;;;;;;4.57;100.00;100791.00;6107149;23;20472;-83
2022/03/30 04:20:16;;;;;;;0.70;0.70;;;;;;;4.57;100.00;100789.28;6187823;23;20017;-82
2022/03/30 04:22:44;;;;;;;0.90;0.90;;;;;;;4.58;100.00;100788.44;6119699;23;20013;-83
2022/03/30 04:25:13;;;;;;;0.75;0.75;;;;;;;4.59;100.00;100784.97;6053147;23;20021;-82
2022/03/30 04:27:50;;;;;;;1.10;1.00;;;;;;;4.56;100.00;100784.91;6140876;23;20028;-82
2022/03/30 04:30:20;;;;;;;0.70;0.70;;;;;;;4.58;100.00;100785.84;6161141;23;20028;-82
2022/03/30 04:32:49;;;;;;;1.65;0.90;;;;;;;4.57;100.00;100781.44;6165023;23;20013;-82
2022/03/30 04:35:22;;;;;;;0.90;0.90;;;;;;;4.57;100.00;100786.66;6151097;23;20028;-82
2022/03/30 04:37:53;;;;;;;2.28;0.88;;;;;;;4.57;100.00;100777.97;6120671;23;20032;-82
2022/03/30 04:40:23;;;;;;;0.80;0.80;;;;;;;4.56;100.00;100779.69;6124592;23;20230;-82
2022/03/30 04:42:52;;;;;;;2.10;0.77;;;;;;;4.56;100.00;100771.88;6130367;23;20024;-82
2022/03/30 04:45:21;;;;;;;2.47;0.95;;;;;;;4.57;100.00;100780.56;6119551;23;20199;-83
2022/03/30 04:47:50;;;;;;;1.05;0.80;;;;;;;4.55;100.00;100780.53;6164762;23;20354;-82
2022/03/30 04:50:25;;;;;;;0.98;0.90;;;;;;;4.53;100.00;100779.59;6105342;23;20314;-82
2022/03/30 04:52:54;;;;;;;0.98;0.80;;;;;;;4.47;100.00;100780.31;6114963;23;20024;-83
2022/03/30 04:55:22;;;;;;;2.45;1.15;;;;;;;4.41;100.00;100772.34;6148167;23;20192;-83
2022/03/30 04:57:50;;;;;;;1.13;1.10;;;;;;;4.40;100.00;100785.34;6189846;23;20024;-82
2022/03/30 05:00:19;;;;;;;2.28;1.33;;;;;;;4.40;100.00;100787.94;6076200;23;20231;-82
2022/03/30 05:02:47;;;;;;;2.92;1.55;;;;;;;4.39;100.00;100780.97;6114108;23;20017;-82
2022/03/30 05:05:16;;;;;;;3.90;1.15;;;;;;;4.38;100.00;100780.06;6148991;23;20214;-82
2022/03/30 05:07:44;;;;;;;1.33;1.20;;;;;;;4.39;100.00;100792.28;6162674;23;20021;-82
2022/03/30 05:10:14;;;;;;;5.68;1.27;;;;;;;4.37;100.00;100788.75;6110649;23;20032;-82
2022/03/30 05:12:43;;;;;;;3.28;1.35;;;;;;;4.39;100.00;100794.03;6162393;23;20017;-83
2022/03/30 05:15:12;;;;;;;4.85;1.50;;;;;;;4.41;100.00;100789.72;6134693;23;20017;-84
2022/03/30 05:17:46;;;;;;;1.38;1.27;;;;;;;4.41;100.00;100787.13;6130315;23;20488;-82
2022/03/30 05:20:16;;;;;;;1.80;1.70;;;;;;;4.42;100.00;100778.44;6156469;23;20028;-83
2022/03/30 05:22:45;;;;;;;6.35;1.88;;;;;;;4.41;100.00;100777.56;6079696;23;20017;-82
2022/03/30 05:25:19;;;;;;;2.20;1.25;;;;;;;4.39;100.00;100781.84;6147677;23;20469;-83
2022/03/30 05:27:48;;;;;;;6.05;1.50;;;;;;;4.37;100.00;100777.44;6184406;23;20021;-81
2022/03/30 05:30:16;;;;;;;5.43;1.83;;;;;;;4.37;100.00;100777.44;6126690;23;20458;-82
2022/03/30 05:32:45;;;;;;;4.63;1.33;;;;;;;4.38;100.00;100768.75;6153719;23;20135;-82
2022/03/30 05:35:15;;;;;;;2.55;1.30;;;;;;;4.38;100.00;100769.63;6112326;23;20016;-82
2022/03/30 05:37:48;;;;;;;3.13;1.50;;;;;;;4.38;100.00;100766.16;6159167;23;20047;-82
2022/03/30 05:40:17;;;;;;;3.42;1.70;;;;;;;4.37;100.00;100762.66;6146915;23;20017;-83
2022/03/30 05:42:46;;;;;;;4.13;1.60;;;;;;;4.39;100.00;100762.72;6186046;23;20028;-82
2022/03/30 05:45:15;;;;;;;5.70;2.10;;;;;;;4.41;100.00;100763.63;6158768;23;20021;-82
2022/03/30 05:47:43;;;;;;;2.78;1.73;;;;;;;4.40;100.00;100756.63;6122797;23;20025;-83
2022/03/30 05:50:12;;;;;;;4.75;1.42;;;;;;;4.40;100.00;100754.91;6128455;23;20016;-82
2022/03/30 05:52:40;;;;;;;3.85;1.40;;;;;;;4.40;100.00;100762.72;6140996;23;20044;-82
2022/03/30 05:55:09;;;;;;;4.10;1.75;;;;;;;4.39;100.00;100758.38;6147986;23;20021;-80
2022/03/30 05:57:38;;;;;;;1.60;1.50;;;;;;;4.40;100.00;100765.34;6154963;23;20024;-80
2022/03/30 06:00:08;;;;;;;3.88;1.55;;;;;;;4.44;100.00;100774.13;6185495;23;20020;-81
2022/03/30 06:02:42;;;;;;;1.48;1.02;;;;;;;4.45;100.00;100773.31;6157264;23;20025;-81
2022/03/30 06:05:11;;;;;;;2.40;1.45;;;;;;;4.45;100.00;100768.97;6081660;23;20029;-81
2022/03/30 06:07:40;;;;;;;5.32;1.50;;;;;;;4.47;100.00;100771.63;6078375;23;20025;-82
2022/03/30 06:10:10;;;;;;;3.03;1.27;;;;;;;4.48;100.00;100770.78;6126696;23;20024;-81
2022/03/30 06:12:38;;;;;;;2.80;1.50;;;;;;;4.52;100.00;100772.63;6121853;23;20021;-82
2022/03/30 06:15:08;;;;;;;1.23;1.13;;;;;;;4.53;100.00;100778.72;6185255;23;20028;-81
2022/03/30 06:17:36;;;;;;;1.88;1.30;;;;;;;4.55;100.00;100777.91;6160705;23;20427;-79
2022/03/30 06:20:05;;;;;;;2.22;1.50;;;;;;;4.57;100.00;100776.22;6128241;23;20032;-81
2022/03/30 06:22:35;;;;;;;3.30;1.30;;;;;;;4.60;100.00;100783.28;6127873;23;20028;-81
2022/03/30 06:25:05;;;;;;;4.07;1.25;;;;;;;4.63;100.00;100781.63;6125043;23;20048;-80
2022/03/30 06:27:34;;;;;;;2.80;1.48;;;;;;;4.66;100.00;100788.66;6154795;23;20040;-81
2022/03/30 06:30:04;;;;;;;5.43;1.92;;;;;;;4.66;100.00;100781.69;6156483;23;20830;-81
2022/03/30 06:32:35;;;;;;;3.92;1.33;;;;;;;4.67;100.00;100778.25;6125000;23;20025;-81
2022/03/30 06:35:05;;;;;;;4.95;1.55;;;;;;;4.67;100.00;100766.94;6162952;23;20025;-80
2022/03/30 06:37:33;;;;;;;1.80;1.30;;;;;;;4.71;100.00;100775.69;6155890;23;20017;-81
2022/03/30 06:40:03;;;;;;;1.30;1.20;;;;;;;4.72;100.00;100780.09;6162163;23;20296;-81
2022/03/30 06:42:31;;;;;;;4.22;1.30;;;;;;;4.67;100.00;100769.53;6173155;23;20025;-81
2022/03/30 06:45:00;;;;;;;4.53;1.40;;;;;;;4.68;100.00;100772.16;6157112;23;20017;-81
2022/03/30 06:47:28;;;;;;;4.97;1.25;;;;;;;4.71;100.00;100762.66;6120694;23;20028;-80
2022/03/30 06:49:57;;;;;;;3.88;1.17;;;;;;;4.74;100.00;100762.75;6111667;23;20035;-81
2022/03/30 06:52:26;;;;;;;4.22;1.30;;;;;;;4.74;100.00;100761.00;6153986;23;20021;-81
2022/03/30 06:54:54;;;;;;;2.13;1.00;;;;;;;4.75;100.00;100760.19;6182778;23;20329;-80
2022/03/30 06:57:23;;;;;;;2.75;1.08;;;;;;;4.80;100.00;100752.44;6100940;23;20021;-82
2022/03/30 06:59:51;;;;;;;5.00;1.08;;;;;;;4.85;100.00;100754.31;6106148;23;20131;-80
2022/03/30 07:02:23;;;;;;;5.20;1.25;;;;;;;4.90;100.00;100764.91;6157786;23;20024;-82
2022/03/30 07:04:51;;;;;;;4.25;1.20;;;;;;;4.95;100.00;100768.50;6159792;23;20211;-81
2022/03/30 07:10:16;;;;;;;4.65;1.27;;;;;;;5.05;100.00;100762.66;6189033;23;20020;-81
2022/03/30 07:12:47;;;;;;;3.72;1.67;;;;;;;5.12;100.00;100760.19;6150922;23;20021;-81
2022/03/30 07:15:19;;;;;;;4.05;1.40;;;;;;;5.17;100.00;100762.06;6134309;23;20028;-81
2022/03/30 07:17:56;;;;;;;3.13;1.30;;;;;;;5.23;100.00;100763.94;6154867;23;20572;-81
2022/03/30 07:20:33;;;;;;;5.35;1.48;;;;;;;5.23;100.00;100756.09;6185949;23;20025;-82
2022/03/30 07:23:03;;;;;;;1.77;1.17;;;;;;;5.28;100.00;100765.81;6136061;23;20053;-82
2022/03/30 07:25:32;;;;;;;4.32;1.45;;;;;;;5.36;100.00;100758.16;6153064;23;20025;-82
2022/03/30 07:28:03;;;;;;;5.78;1.90;;;;;;;5.46;100.00;100767.06;6134252;23;20020;-81
2022/03/30 07:30:32;;;;;;;3.38;1.60;;;;;;;5.56;100.00;100765.59;6103850;23;20025;-81
2022/03/30 07:33:01;;;;;;;4.95;1.50;;;;;;;5.56;100.00;100761.22;6158493;23;20021;-81
2022/03/30 07:35:32;;;;;;;5.25;1.30;;;;;;;5.60;100.00;100754.34;6153174;23;20029;-81
2022/03/30 07:38:03;;;;;;;5.38;1.67;;;;;;;5.65;100.00;100757.91;6125642;23;20632;-81
2022/03/30 07:40:32;;;;;;;6.40;1.83;;;;;;;5.73;100.00;100764.22;6149499;23;20025;-81
2022/03/30 07:43:02;;;;;;;4.72;1.40;;;;;;;5.81;100.00;100752.16;6159186;23;20528;-80
2022/03/30 07:45:33;;;;;;;4.50;1.83;;;;;;;5.90;100.00;100753.19;6187976;23;20013;-81
2022/03/30 07:48:02;;;;;;;7.35;1.70;;;;;;;5.96;100.00;100743.78;6159030;23;20208;-81
2022/03/30 07:50:32;;;;;;;6.20;1.42;;;;;;;6.00;100.00;100750.84;6087794;23;20020;-82
2022/03/30 07:53:02;;;;;;;3.27;1.37;;;;;;;6.01;100.00;100752.63;6159224;23;20032;-81
2022/03/30 07:55:31;;;;;;;4.00;1.63;;;;;;;5.98;100.00;100749.94;6129463;23;20025;-81
2022/03/30 07:58:00;;;;;;;6.13;1.40;;;;;;;5.91;100.00;100757.59;6094238;23;20020;-81
2022/03/30 08:00:29;;;;;;;5.60;1.50;;;;;;;5.88;100.00;100762.75;6162595;23;20481;-81
2022/03/30 08:02:59;;;;;;;4.13;1.35;;;;;;;5.84;100.00;100753.94;6133505;23;20032;-81
2022/03/30 08:05:29;;;;;;;9.07;1.35;;;;;;;5.82;100.00;100750.44;6137231;23;20013;-81
2022/03/30 08:07:57;;;;;;;4.28;1.33;;;;;;;5.79;100.00;100750.38;6134486;23;20617;-81
2022/03/30 08:10:30;;;;;;;3.45;1.45;;;;;;;5.77;100.00;100752.97;6163131;23;20025;-81
2022/03/30 08:13:00;;;;;;;;;;;;;;;5.85;100.00;100756.59;6103433;23;20021;-81
2022/03/30 08:15:29;;;;;;;9.82;1.60;;;;;;;5.96;100.00;100756.00;6131415;23;19920;-81
2022/03/30 08:17:58;;;;;;;5.97;1.75;;;;;;;6.05;100.00;100758.81;6159557;23;20020;-82
2022/03/30 08:23:16;;;;;;;4.05;1.75;;;;;;;6.30;100.00;100767.13;6133311;23;20473;-81
2022/03/30 08:25:45;;;;;;;7.20;1.80;;;;;;;6.38;100.00;100761.19;6129247;23;20017;-83
2022/03/30 08:28:13;;;;;;;6.38;1.98;;;;;;;6.46;100.00;100758.69;6137384;23;20434;-81
2022/03/30 08:30:41;;;;;;;7.20;1.67;;;;;;;6.48;100.00;100771.81;6137112;23;20032;-81
2022/03/30 08:33:10;;;;;;;8.18;2.45;;;;;;;6.49;100.00;100766.63;6104334;23;20056;-81
2022/03/30 08:35:40;;;;;;;6.47;2.17;;;;;;;6.50;100.00;100783.19;6136076;23;20449;-81
2022/03/30 08:38:08;;;;;;;6.90;1.80;;;;;;;6.50;100.00;100770.13;6160925;23;20520;-80
2022/03/30 08:40:37;;;;;;;3.50;1.33;;;;;;;6.48;100.00;100780.56;6127260;23;20028;-81
2022/03/30 08:43:06;;;;;;;8.00;1.88;;;;;;;6.47;100.00;100768.34;6115009;23;20013;-81
2022/03/30 08:45:35;;;;;;;2.72;1.40;;;;;;;6.46;100.00;100768.31;6163755;23;20021;-82
2022/03/30 08:48:05;;;;;;;1.67;1.35;;;;;;;6.46;100.00;100766.56;6161677;23;20486;-81
2022/03/30 08:50:33;;;;;;;5.20;1.50;;;;;;;6.48;100.00;100766.59;6163437;23;20025;-81
2022/03/30 08:53:05;;;;;;;5.60;1.60;;;;;;;6.55;100.00;100763.25;6112151;23;20132;-81
2022/03/30 08:55:34;;;;;;;2.65;1.27;;;;;;;6.59;100.00;100762.44;6163083;23;20024;-80
2022/03/30 08:58:03;;;;;;;2.92;1.33;;;;;;;6.68;100.00;100761.72;6139244;23;20460;-80
2022/03/30 09:00:34;;;;;;;3.95;1.40;;;;;;;6.75;100.00;100759.25;6111010;23;20025;-81
2022/03/30 09:03:05;;;;;;;4.30;1.50;;;;;;;6.81;100.00;100758.47;6101184;23;20036;-80
2022/03/30 09:05:38;;;;;;;5.35;1.98;;;;;;;6.88;100.00;100755.09;6140051;23;20047;-82
2022/03/30 09:08:21;;;;;;;5.10;1.50;;;;;;;6.91;100.00;100755.13;6114683;23;20202;-81
2022/03/30 09:10:55;;;;;;;4.47;1.60;;;;;;;6.96;100.00;100757.84;6127161;23;20327;-82
2022/03/30 09:13:24;;;;;;;4.35;1.30;;;;;;;7.03;100.00;100749.19;6118099;23;20451;-81
2022/03/30 09:15:52;;;;;;;6.80;1.63;;;;;;;7.07;100.00;100755.38;6158412;23;20025;-80
2022/03/30 09:18:21;;;;;;;3.22;1.40;;;;;;;7.16;100.00;100751.16;6138835;23;20016;-78
2022/03/30 09:20:54;;;;;;;3.45;1.40;;;;;;;7.21;100.00;100751.25;6148627;23;20028;-81
2022/03/30 09:23:27;;;;;;;5.72;1.40;;;;;;;7.30;100.00;100748.78;6103758;23;20028;-80
2022/03/30 09:25:57;;;;;;;4.43;1.85;;;;;;;7.35;100.00;100746.19;6158451;23;20319;-80
2022/03/30 09:28:29;;;;;;;5.13;1.80;;;;;;;7.34;100.00;100747.94;6105538;23;20021;-80
2022/03/30 09:30:57;;;;;;;4.03;1.40;;;;;;;7.32;100.00;100740.94;6123993;23;20362;-81
2022/03/30 09:33:26;;;;;;;3.28;1.63;;;;;;;7.28;100.00;100747.88;6157010;23;20028;-80
2022/03/30 09:35:55;;;;;;;2.08;1.30;;;;;;;7.26;100.00;100749.59;6135487;23;20386;-80
2022/03/30 09:38:25;;;;;;;4.78;1.55;;;;;;;7.22;100.00;100738.16;6139761;23;20009;-80
2022/03/30 09:40:56;;;;;;;2.75;1.20;;;;;;;7.19;100.00;100745.09;6102633;23;20021;-80
2022/03/30 09:43:37;;;;;;;3.63;1.40;;;;;;;7.17;100.00;100739.84;6104834;23;20021;-80
2022/03/30 09:46:06;;;;;;;5.32;1.88;;;;;;;7.09;100.00;100744.09;6156403;23;20020;-80
2022/03/30 09:48:56;;;;;;;3.13;1.30;;;;;;;7.01;100.00;100741.34;6161892;23;20021;-80
2022/03/30 09:51:27;;;;;;;4.68;2.20;;;;;;;7.02;100.00;100732.59;6163766;23;20454;-80
2022/03/30 09:53:56;;;;;;;3.65;1.25;;;;;;;7.05;100.00;100737.03;6158682;23;20374;-80
2022/03/30 09:56:25;;;;;;;2.90;1.13;;;;;;;7.05;100.00;100746.63;6138911;23;20465;-80
2022/03/30 09:59:01;;;;;;;2.80;1.27;;;;;;;6.96;100.00;100739.50;6158438;23;20554;-81
2022/03/30 10:01:34;;;;;;;4.25;1.60;;;;;;;6.96;100.00;100736.88;6149730;23;20028;-81
2022/03/30 10:04:08;;;;;;;6.03;1.42;;;;;;;6.95;100.00;100746.47;6133909;23;20299;-80
2022/03/30 10:06:40;;;;;;;3.85;1.30;;;;;;;6.94;100.00;100744.72;6096824;23;20033;-81
2022/03/30 10:09:16;;;;;;;5.70;1.55;;;;;;;7.01;100.00;100738.72;6152512;23;20024;-80
2022/03/30 10:11:44;;;;;;;8.85;1.30;;;;;;;7.08;100.00;100744.94;6125664;23;20032;-81
2022/03/30 10:14:13;;;;;;;4.80;1.40;;;;;;;7.19;100.00;100738.13;6163435;23;20332;-81
2022/03/30 10:16:43;;;;;;;2.78;1.40;;;;;;;7.33;100.00;100738.31;6124448;23;20025;-81
2022/03/30 10:19:13;;;;;;;3.70;1.20;;;;;;;7.41;98.69;100743.69;6162771;23;20021;-81
2022/03/30 10:22:11;;;;;;;4.10;1.30;;;;;;;7.50;99.28;100740.31;6113889;23;20021;-81
2022/03/30 10:25:29;;;;;;;4.45;1.33;;;;;;;7.68;99.71;100735.31;6161859;23;20028;-83
2022/03/30 10:28:13;;;;;;;6.03;1.70;;;;;;;7.85;98.58;100735.53;5975256;23;20051;-82
2022/03/30 10:30:44;;;;;;;2.45;1.08;;;;;;;7.99;98.80;100727.81;6153472;23;20017;-83
2022/03/30 10:33:13;;;;;;;3.45;1.10;;;;;;;8.09;98.11;100734.03;6135554;23;20021;-82
2022/03/30 10:35:43;;;;;;;3.95;1.88;;;;;;;7.90;92.81;100731.22;6112928;23;20013;-83
2022/03/30 10:38:11;;;;;;;3.33;1.30;;;;;;;7.76;93.18;100741.53;6188775;23;20039;-81
2022/03/30 10:40:41;;;;;;;6.25;1.30;;;;;;;7.55;92.80;100730.75;6136198;23;20017;-82
2022/03/30 10:43:11;;;;;;;5.47;1.58;;;;;;;7.40;92.87;100729.69;6132511;23;20788;-81
2022/03/30 10:45:55;;;;;;;8.55;2.08;;;;;;;7.22;90.89;100732.94;6185549;23;20025;-81
2022/03/30 10:48:37;;;;;;;3.20;1.20;;;;;;;7.17;93.01;100731.97;6143614;23;20025;-80
2022/03/30 10:51:08;;;;;;;2.58;1.15;;;;;;;7.12;91.11;100738.00;6187847;23;20020;-80
2022/03/30 10:53:47;;;;;;;5.13;1.58;;;;;;;7.06;88.32;100730.03;6124017;23;20481;-81
2022/03/30 10:56:17;;;;;;;4.03;1.10;;;;;;;7.13;89.32;100729.28;6160391;23;20032;-80
2022/03/30 10:58:59;;;;;;;3.50;1.10;;;;;;;7.14;88.90;100721.44;6148230;23;20717;-80
2022/03/30 11:01:33;;;;;;;3.22;1.50;;;;;;;7.11;88.97;100724.03;6181257;23;20431;-80
2022/03/30 11:04:02;;;;;;;6.18;1.25;;;;;;;7.11;89.29;100720.53;6148683;23;20024;-80
2022/03/30 11:06:38;;;;;;;5.50;1.65;;;;;;;7.13;89.28;100719.69;6153070;23;20021;-81
2022/03/30 11:09:23;;;;;;;2.95;1.13;;;;;;;7.13;86.63;100724.06;6141394;23;20360;-80
2022/03/30 11:12:00;;;;;;;3.47;1.10;;;;;;;7.11;87.44;100715.28;6156183;23;20451;-81
2022/03/30 11:14:36;;;;;;;1.90;1.10;;;;;;;7.15;87.42;100719.72;6118749;23;20048;-81
2022/03/30 11:17:06;;;;;;;5.05;1.30;;;;;;;7.13;87.22;100718.81;6118374;23;20443;-80
2022/03/30 11:19:47;;;;;;;3.88;1.08;;;;;;;7.21;87.54;100717.19;6091936;23;20014;-80
2022/03/30 11:22:23;;;;;;;5.25;1.30;;;;;;;7.28;87.85;100708.56;6156573;23;20024;-81
2022/03/30 11:25:18;;;;;;;5.30;1.10;;;;;;;7.30;85.19;100704.22;6156000;23;20125;-80
2022/03/30 11:28:01;;;;;;;2.92;1.40;;;;;;;7.31;86.06;100703.34;6156087;23;20014;-81
2022/03/30 11:30:35;;;;;;;5.03;1.10;;;;;;;7.35;87.84;100707.78;6152834;23;20022;-81
2022/03/30 11:33:21;;;;;;;3.28;1.20;;;;;;;7.37;87.38;100705.16;6154305;23;20021;-82
2022/03/30 11:35:52;;;;;;;6.63;1.00;;;;;;;7.39;87.02;100706.97;6129242;23;20278;-82
2022/03/30 11:38:27;;;;;;;1.38;1.13;;;;;;;7.45;86.87;100705.25;6146023;23;20032;-83
2022/03/30 11:41:02;;;;;;;4.13;1.20;;;;;;;7.46;85.32;100694.81;6132981;23;20482;-81
2022/03/30 11:43:33;;;;;;;3.17;1.40;;;;;;;7.40;85.17;100697.34;6153733;23;21028;-82
2022/03/30 11:46:04;;;;;;;2.60;1.00;;;;;;;7.37;85.29;100692.06;6106345;23;20359;-80
2022/03/30 11:48:39;;;;;;;6.25;1.08;;;;;;;7.35;85.05;100694.69;6126081;23;21122;-80
2022/03/30 11:51:24;;;;;;;3.42;1.00;;;;;;;7.36;84.31;100691.19;6131441;23;20029;-80